createdAt,value
2019-02-11T00:00:05.384Z,5.50
2019-02-11T00:01:05.633Z,5.50
2019-02-11T00:02:05.142Z,5.50
2019-02-11T00:03:05.482Z,5.50
2019-02-11T00:04:05.461Z,5.50
2019-02-11T00:05:05.704Z,5.50
2019-02-11T00:06:05.839Z,5.50
2019-02-11T00:07:05.380Z,5.50
2019-02-11T00:08:05.453Z,5.50
2019-02-11T00:09:05.655Z,5.50
2019-02-11T00:10:05.617Z,5.50
2019-02-11T00:11:05.066Z,5.50
2019-02-11T00:12:05.768Z,5.50
2019-02-11T00:13:10.572Z,5.50
2019-02-11T00:14:05.218Z,5.50
2019-02-11T00:15:05.540Z,5.50
2019-02-11T00:16:05.704Z,5.50
2019-02-11T00:17:05.301Z,5.50
2019-02-11T00:18:05.855Z,5.50
2019-02-11T00:19:05.139Z,5.50
2019-02-11T00:20:05.463Z,5.50
2019-02-11T00:21:05.621Z,5.50
2019-02-11T00:22:05.935Z,5.50
2019-02-11T00:23:05.473Z,5.50
2019-02-11T00:24:05.549Z,5.50
2019-02-11T00:25:05.629Z,5.50
2019-02-11T00:26:05.136Z,5.50
2019-02-11T00:27:05.155Z,5.50
2019-02-11T00:28:05.132Z,5.50
2019-02-11T00:29:05.797Z,5.50
2019-02-11T00:30:05.289Z,5.44
2019-02-11T00:31:05.392Z,5.50
2019-02-11T00:32:05.449Z,5.50
2019-02-11T00:33:05.548Z,5.44
2019-02-11T00:34:05.621Z,5.50
2019-02-11T00:35:06.029Z,5.50
2019-02-11T00:36:06.012Z,5.50
2019-02-11T00:37:05.053Z,5.44
2019-02-11T00:38:05.347Z,5.50
2019-02-11T00:39:05.531Z,5.50
2019-02-11T00:40:05.854Z,5.50
2019-02-11T00:41:06.013Z,5.50
2019-02-11T00:42:05.129Z,5.50
2019-02-11T00:43:05.758Z,5.44
2019-02-11T00:44:05.118Z,5.44
2019-02-11T00:45:05.541Z,5.44
2019-02-11T00:46:05.704Z,5.44
2019-02-11T00:47:06.026Z,5.44
2019-02-11T00:48:07.035Z,5.44
2019-02-11T00:49:05.205Z,5.44
2019-02-11T00:50:05.470Z,5.44
2019-02-11T00:51:05.776Z,5.44
2019-02-11T00:52:05.294Z,5.38
2019-02-11T00:53:05.711Z,5.38
2019-02-11T00:54:05.940Z,5.38
2019-02-11T00:55:06.049Z,5.38
2019-02-11T00:56:05.920Z,5.38
2019-02-11T00:57:05.602Z,5.38
2019-02-11T00:58:05.756Z,5.38
2019-02-11T00:59:05.941Z,5.38
2019-02-11T01:00:05.453Z,5.38
2019-02-11T01:01:05.467Z,5.38
2019-02-11T01:02:05.998Z,5.38
2019-02-11T01:03:05.063Z,5.38
2019-02-11T01:04:05.191Z,5.38
2019-02-11T01:05:05.384Z,5.38
2019-02-11T01:06:05.464Z,5.31
2019-02-11T01:07:05.696Z,5.31
2019-02-11T01:08:05.301Z,5.31
2019-02-11T01:09:05.395Z,5.31
2019-02-11T01:10:05.467Z,5.31
2019-02-11T01:11:05.726Z,5.25
2019-02-11T01:12:05.856Z,5.25
2019-02-11T01:13:05.962Z,5.25
2019-02-11T01:14:05.320Z,5.25
2019-02-11T01:15:05.665Z,5.25
2019-02-11T01:16:05.533Z,5.25
2019-02-11T01:17:05.307Z,5.25
2019-02-11T01:18:05.683Z,5.25
2019-02-11T01:19:05.482Z,5.19
2019-02-11T01:20:05.567Z,5.19
2019-02-11T01:21:05.777Z,5.19
2019-02-11T01:22:05.464Z,5.19
2019-02-11T01:23:05.728Z,5.19
2019-02-11T01:24:05.491Z,5.19
2019-02-11T01:25:05.387Z,5.19
2019-02-11T01:26:05.449Z,5.19
2019-02-11T01:27:05.043Z,5.19
2019-02-11T01:28:05.370Z,5.12
2019-02-11T01:29:06.132Z,5.12
2019-02-11T01:30:05.549Z,5.12
2019-02-11T01:31:05.866Z,5.12
2019-02-11T01:32:06.139Z,5.12
2019-02-11T01:33:05.147Z,5.12
2019-02-11T01:34:05.146Z,5.12
2019-02-11T01:35:05.475Z,5.06
2019-02-11T01:36:05.357Z,5.06
2019-02-11T01:37:05.153Z,5.06
2019-02-11T01:38:05.207Z,5.06
2019-02-11T01:39:05.706Z,5.00
2019-02-11T01:40:05.446Z,5.00
2019-02-11T01:41:05.621Z,5.00
2019-02-11T01:42:05.604Z,5.00
2019-02-11T01:43:05.779Z,5.00
2019-02-11T01:44:05.197Z,4.94
2019-02-11T01:45:05.382Z,4.94
2019-02-11T01:46:05.691Z,4.94
2019-02-11T01:47:05.537Z,4.94
2019-02-11T01:48:05.837Z,4.94
2019-02-11T01:49:06.123Z,4.88
2019-02-11T01:50:05.133Z,4.88
2019-02-11T01:51:05.288Z,4.88
2019-02-11T01:52:05.856Z,4.88
2019-02-11T01:53:05.941Z,4.88
2019-02-11T01:54:05.443Z,4.88
2019-02-11T01:55:05.610Z,4.81
2019-02-11T01:56:05.772Z,4.81
2019-02-11T01:57:05.949Z,4.81
2019-02-11T01:58:05.448Z,4.75
2019-02-11T01:59:05.970Z,4.75
2019-02-11T02:00:06.001Z,4.75
2019-02-11T02:01:05.465Z,4.75
2019-02-11T02:02:06.005Z,4.75
2019-02-11T02:03:05.716Z,4.75
2019-02-11T02:04:05.644Z,4.75
2019-02-11T02:05:05.762Z,4.69
2019-02-11T02:06:05.232Z,4.69
2019-02-11T02:07:05.200Z,4.69
2019-02-11T02:08:05.536Z,4.69
2019-02-11T02:09:05.635Z,4.62
2019-02-11T02:10:05.716Z,4.62
2019-02-11T02:11:06.043Z,4.62
2019-02-11T02:12:05.132Z,4.62
2019-02-11T02:13:05.130Z,4.62
2019-02-11T02:14:05.451Z,4.62
2019-02-11T02:15:05.555Z,4.62
2019-02-11T02:16:05.590Z,4.62
2019-02-11T02:17:05.216Z,4.56
2019-02-11T02:18:05.846Z,4.56
2019-02-11T02:19:05.076Z,4.62
2019-02-11T02:20:05.221Z,4.56
2019-02-11T02:21:05.450Z,4.56
2019-02-11T02:22:05.778Z,4.56
2019-02-11T02:23:05.957Z,4.56
2019-02-11T02:24:05.285Z,4.56
2019-02-11T02:25:06.028Z,4.56
2019-02-11T02:26:05.053Z,4.56
2019-02-11T02:27:05.150Z,4.50
2019-02-11T02:28:05.215Z,4.50
2019-02-11T02:29:05.318Z,4.50
2019-02-11T02:30:05.838Z,4.50
2019-02-11T02:31:05.533Z,4.44
2019-02-11T02:32:05.695Z,4.50
2019-02-11T02:33:05.086Z,4.50
2019-02-11T02:34:05.223Z,4.44
2019-02-11T02:35:05.613Z,4.44
2019-02-11T02:36:06.099Z,4.44
2019-02-11T02:37:05.551Z,4.44
2019-02-11T02:38:05.224Z,4.44
2019-02-11T02:39:05.304Z,4.44
2019-02-11T02:40:05.556Z,4.44
2019-02-11T02:41:05.780Z,4.44
2019-02-11T02:42:05.471Z,4.38
2019-02-11T02:43:05.460Z,4.38
2019-02-11T02:44:05.147Z,4.38
2019-02-11T02:45:05.555Z,4.38
2019-02-11T02:46:05.844Z,4.38
2019-02-11T02:47:05.393Z,4.38
2019-02-11T02:48:05.947Z,4.38
2019-02-11T02:49:05.243Z,4.38
2019-02-11T02:50:05.399Z,4.38
2019-02-11T02:51:05.624Z,4.31
2019-02-11T02:52:05.062Z,4.31
2019-02-11T02:53:05.137Z,4.31
2019-02-11T02:54:05.441Z,4.31
2019-02-11T02:55:06.124Z,4.31
2019-02-11T02:56:05.031Z,4.31
2019-02-11T02:57:05.630Z,4.31
2019-02-11T02:58:06.102Z,4.31
2019-02-11T02:59:05.133Z,4.31
2019-02-11T03:00:05.542Z,4.31
2019-02-11T03:01:05.795Z,4.25
2019-02-11T03:02:06.420Z,4.25
2019-02-11T03:03:05.686Z,4.25
2019-02-11T03:04:06.103Z,4.25
2019-02-11T03:05:05.714Z,4.25
2019-02-11T03:06:05.801Z,4.25
2019-02-11T03:07:05.314Z,4.25
2019-02-11T03:08:05.386Z,4.19
2019-02-11T03:09:05.390Z,4.19
2019-02-11T03:10:05.515Z,4.19
2019-02-11T03:11:05.790Z,4.19
2019-02-11T03:12:05.935Z,4.19
2019-02-11T03:13:05.779Z,4.19
2019-02-11T03:14:05.565Z,4.19
2019-02-11T03:15:05.957Z,4.19
2019-02-11T03:16:05.057Z,4.19
2019-02-11T03:17:05.704Z,4.19
2019-02-11T03:18:05.796Z,4.19
2019-02-11T03:19:06.023Z,4.12
2019-02-11T03:20:05.114Z,4.12
2019-02-11T03:21:05.402Z,4.12
2019-02-11T03:22:05.389Z,4.12
2019-02-11T03:23:05.718Z,4.12
2019-02-11T03:24:05.839Z,4.12
2019-02-11T03:25:05.151Z,4.12
2019-02-11T03:26:05.304Z,4.06
2019-02-11T03:27:05.296Z,4.06
2019-02-11T03:28:05.544Z,4.06
2019-02-11T03:29:05.946Z,4.06
2019-02-11T03:30:05.390Z,4.00
2019-02-11T03:31:05.735Z,4.00
2019-02-11T03:32:05.851Z,4.00
2019-02-11T03:33:05.377Z,4.00
2019-02-11T03:34:06.570Z,4.00
2019-02-11T03:35:05.799Z,4.00
2019-02-11T03:36:05.791Z,3.94
2019-02-11T03:37:05.478Z,3.94
2019-02-11T03:38:05.651Z,3.94
2019-02-11T03:39:05.546Z,3.94
2019-02-11T03:40:05.699Z,3.94
2019-02-11T03:41:05.227Z,3.94
2019-02-11T03:42:05.856Z,3.94
2019-02-11T03:43:05.937Z,3.94
2019-02-11T03:44:14.425Z,3.88
2019-02-11T03:45:05.521Z,3.88
2019-02-11T03:46:05.763Z,3.88
2019-02-11T03:47:05.779Z,3.88
2019-02-11T03:48:05.217Z,3.88
2019-02-11T03:49:05.717Z,3.81
2019-02-11T03:50:05.458Z,3.81
2019-02-11T03:51:05.860Z,3.81
2019-02-11T03:52:05.206Z,3.81
2019-02-11T03:53:05.774Z,3.81
2019-02-11T03:54:05.929Z,3.81
2019-02-11T03:55:05.433Z,3.81
2019-02-11T03:56:05.770Z,3.81
2019-02-11T03:57:06.021Z,3.81
2019-02-11T03:58:05.831Z,3.75
2019-02-11T03:59:05.471Z,3.75
2019-02-11T04:00:06.021Z,3.75
2019-02-11T04:01:05.146Z,3.81
2019-02-11T04:02:05.445Z,3.75
2019-02-11T04:03:04.976Z,3.75
2019-02-11T04:04:05.221Z,3.81
2019-02-11T04:05:05.456Z,3.75
2019-02-11T04:06:05.788Z,3.75
2019-02-11T04:07:05.905Z,3.75
2019-02-11T04:08:05.755Z,3.75
2019-02-11T04:09:05.944Z,3.81
2019-02-11T04:10:05.542Z,3.75
2019-02-11T04:11:05.538Z,3.75
2019-02-11T04:12:05.213Z,3.75
2019-02-11T04:13:05.218Z,3.75
2019-02-11T04:14:05.698Z,3.75
2019-02-11T04:15:05.226Z,3.75
2019-02-11T04:16:05.863Z,3.75
2019-02-11T04:17:05.163Z,3.75
2019-02-11T04:18:05.435Z,3.75
2019-02-11T04:19:06.109Z,3.69
2019-02-11T04:20:05.196Z,3.75
2019-02-11T04:21:05.944Z,3.69
2019-02-11T04:22:06.088Z,3.69
2019-02-11T04:23:05.138Z,3.69
2019-02-11T04:24:05.865Z,3.69
2019-02-11T04:25:05.512Z,3.69
2019-02-11T04:26:07.848Z,3.69
2019-02-11T04:27:05.397Z,3.69
2019-02-11T04:28:06.004Z,3.69
2019-02-11T04:29:05.293Z,3.69
2019-02-11T04:30:05.877Z,3.69
2019-02-11T04:31:05.865Z,3.69
2019-02-11T04:32:05.206Z,3.69
2019-02-11T04:33:05.322Z,3.69
2019-02-11T04:34:05.385Z,3.69
2019-02-11T04:35:05.474Z,3.69
2019-02-11T04:36:05.604Z,3.69
2019-02-11T04:37:05.799Z,3.62
2019-02-11T04:38:05.861Z,3.62
2019-02-11T04:39:05.943Z,3.62
2019-02-11T04:40:05.146Z,3.69
2019-02-11T04:41:05.229Z,3.69
2019-02-11T04:42:05.684Z,3.69
2019-02-11T04:43:05.786Z,3.69
2019-02-11T04:44:05.938Z,3.69
2019-02-11T04:45:05.132Z,3.69
2019-02-11T04:46:05.440Z,3.69
2019-02-11T04:47:05.395Z,3.69
2019-02-11T04:48:05.681Z,3.69
2019-02-11T04:49:05.229Z,3.69
2019-02-11T04:50:05.315Z,3.69
2019-02-11T04:51:05.644Z,3.69
2019-02-11T04:52:05.451Z,3.69
2019-02-11T04:53:05.690Z,3.62
2019-02-11T04:54:05.922Z,3.62
2019-02-11T04:55:05.376Z,3.62
2019-02-11T04:56:05.692Z,3.69
2019-02-11T04:57:05.571Z,3.69
2019-02-11T04:58:05.619Z,3.62
2019-02-11T04:59:05.722Z,3.62
2019-02-11T05:00:05.767Z,3.62
2019-02-11T05:01:06.023Z,3.62
2019-02-11T05:02:05.139Z,3.62
2019-02-11T05:03:05.626Z,3.62
2019-02-11T05:04:05.047Z,3.62
2019-02-11T05:05:05.342Z,3.62
2019-02-11T05:06:05.235Z,3.62
2019-02-11T05:07:05.546Z,3.62
2019-02-11T05:08:06.121Z,3.62
2019-02-11T05:09:05.153Z,3.62
2019-02-11T05:10:05.295Z,3.62
2019-02-11T05:11:05.373Z,3.62
2019-02-11T05:12:05.545Z,3.62
2019-02-11T05:13:05.773Z,3.62
2019-02-11T05:14:05.957Z,3.62
2019-02-11T05:15:05.135Z,3.62
2019-02-11T05:16:05.226Z,3.69
2019-02-11T05:17:05.381Z,3.62
2019-02-11T05:18:05.460Z,3.62
2019-02-11T05:19:05.518Z,3.69
2019-02-11T05:20:05.969Z,3.62
2019-02-11T05:21:05.305Z,3.62
2019-02-11T05:22:05.550Z,3.62
2019-02-11T05:23:05.610Z,3.62
2019-02-11T05:24:05.491Z,3.62
2019-02-11T05:25:06.006Z,3.62
2019-02-11T05:26:05.547Z,3.62
2019-02-11T05:27:05.613Z,3.62
2019-02-11T05:28:06.283Z,3.62
2019-02-11T05:29:05.521Z,3.62
2019-02-11T05:30:05.150Z,3.62
2019-02-11T05:31:05.212Z,3.62
2019-02-11T05:32:05.303Z,3.62
2019-02-11T05:33:05.966Z,3.62
2019-02-11T05:34:05.645Z,3.62
2019-02-11T05:35:05.604Z,3.62
2019-02-11T05:36:05.147Z,3.62
2019-02-11T05:37:05.296Z,3.62
2019-02-11T05:38:05.306Z,3.62
2019-02-11T05:39:06.110Z,3.62
2019-02-11T05:40:05.138Z,3.62
2019-02-11T05:41:05.706Z,3.62
2019-02-11T05:42:05.859Z,3.62
2019-02-11T05:43:05.217Z,3.62
2019-02-11T05:44:06.142Z,3.62
2019-02-11T05:45:05.765Z,3.62
2019-02-11T05:46:06.048Z,3.62
2019-02-11T05:47:05.997Z,3.62
2019-02-11T05:48:05.148Z,3.62
2019-02-11T05:49:05.314Z,3.62
2019-02-11T05:50:05.489Z,3.69
2019-02-11T05:51:05.537Z,3.69
2019-02-11T05:52:05.179Z,3.69
2019-02-11T05:53:05.140Z,3.69
2019-02-11T05:54:05.705Z,3.69
2019-02-11T05:55:05.875Z,3.69
2019-02-11T05:56:05.859Z,3.69
2019-02-11T05:57:05.229Z,3.69
2019-02-11T05:58:05.235Z,3.69
2019-02-11T05:59:05.294Z,3.69
2019-02-11T06:00:05.530Z,3.69
2019-02-11T06:01:05.685Z,3.69
2019-02-11T06:02:05.780Z,3.69
2019-02-11T06:03:05.947Z,3.69
2019-02-11T06:04:05.209Z,3.69
2019-02-11T06:05:05.537Z,3.69
2019-02-11T06:06:05.634Z,3.69
2019-02-11T06:07:05.775Z,3.75
2019-02-11T06:08:05.752Z,3.69
2019-02-11T06:09:06.008Z,3.69
2019-02-11T06:10:05.549Z,3.69
2019-02-11T06:11:05.530Z,3.75
2019-02-11T06:12:05.058Z,3.75
2019-02-11T06:13:05.536Z,3.75
2019-02-11T06:14:05.232Z,3.75
2019-02-11T06:15:05.324Z,3.75
2019-02-11T06:16:05.529Z,3.75
2019-02-11T06:17:05.760Z,3.75
2019-02-11T06:18:06.030Z,3.75
2019-02-11T06:19:05.531Z,3.75
2019-02-11T06:20:05.624Z,3.75
2019-02-11T06:21:06.765Z,3.81
2019-02-11T06:22:05.074Z,3.75
2019-02-11T06:23:05.297Z,3.75
2019-02-11T06:24:05.384Z,3.75
2019-02-11T06:25:05.479Z,3.81
2019-02-11T06:26:05.603Z,3.75
2019-02-11T06:27:05.681Z,3.81
2019-02-11T06:28:05.394Z,3.81
2019-02-11T06:29:05.599Z,3.81
2019-02-11T06:30:05.152Z,3.81
2019-02-11T06:31:05.941Z,3.88
2019-02-11T06:32:06.031Z,3.81
2019-02-11T06:33:05.461Z,3.81
2019-02-11T06:34:05.608Z,3.81
2019-02-11T06:35:05.764Z,3.81
2019-02-11T06:36:11.717Z,3.81
2019-02-11T06:37:05.235Z,3.81
2019-02-11T06:38:05.531Z,3.81
2019-02-11T06:39:05.860Z,3.81
2019-02-11T06:40:05.405Z,3.81
2019-02-11T06:41:05.381Z,3.81
2019-02-11T06:42:05.932Z,3.81
2019-02-11T06:43:05.371Z,3.81
2019-02-11T06:44:05.760Z,3.81
2019-02-11T06:45:12.712Z,3.81
2019-02-11T06:46:05.797Z,3.81
2019-02-11T06:47:05.950Z,3.81
2019-02-11T06:48:05.300Z,3.81
2019-02-11T06:49:05.372Z,3.81
2019-02-11T06:50:05.870Z,3.81
2019-02-11T06:51:05.394Z,3.81
2019-02-11T06:52:05.732Z,3.81
2019-02-11T06:53:05.947Z,3.81
2019-02-11T06:54:06.117Z,3.81
2019-02-11T06:55:05.149Z,3.81
2019-02-11T06:56:05.485Z,3.81
2019-02-11T06:57:05.459Z,3.81
2019-02-11T06:58:05.711Z,3.81
2019-02-11T06:59:05.152Z,3.81
2019-02-11T07:00:05.489Z,3.81
2019-02-11T07:01:05.464Z,3.81
2019-02-11T07:02:05.783Z,3.81
2019-02-11T07:03:05.196Z,3.88
2019-02-11T07:04:05.420Z,3.88
2019-02-11T07:05:05.533Z,3.88
2019-02-11T07:06:05.704Z,3.88
2019-02-11T07:07:07.458Z,3.88
2019-02-11T07:08:07.941Z,3.88
2019-02-11T07:09:05.285Z,3.94
2019-02-11T07:10:05.704Z,3.94
2019-02-11T07:11:05.777Z,3.88
2019-02-11T07:12:06.114Z,3.88
2019-02-11T07:13:05.223Z,3.94
2019-02-11T07:14:05.464Z,3.94
2019-02-11T07:15:05.912Z,4.00
2019-02-11T07:16:05.630Z,4.00
2019-02-11T07:17:05.051Z,4.00
2019-02-11T07:18:05.227Z,3.94
2019-02-11T07:19:05.543Z,3.94
2019-02-11T07:20:05.695Z,3.94
2019-02-11T07:21:06.020Z,3.94
2019-02-11T07:22:06.028Z,3.94
2019-02-11T07:23:05.623Z,3.94
2019-02-11T07:24:05.950Z,3.94
2019-02-11T07:25:05.365Z,3.94
2019-02-11T07:26:05.851Z,3.94
2019-02-11T07:27:05.129Z,4.00
2019-02-11T07:28:05.378Z,4.00
2019-02-11T07:29:05.927Z,4.00
2019-02-11T07:30:05.545Z,4.00
2019-02-11T07:31:05.701Z,4.00
2019-02-11T07:32:05.327Z,4.00
2019-02-11T07:33:05.281Z,4.00
2019-02-11T07:34:05.381Z,4.06
2019-02-11T07:35:05.618Z,4.00
2019-02-11T07:36:05.791Z,4.06
2019-02-11T07:37:05.452Z,4.06
2019-02-11T07:38:05.672Z,4.06
2019-02-11T07:39:05.927Z,4.06
2019-02-11T07:40:05.497Z,4.06
2019-02-11T07:41:05.618Z,4.12
2019-02-11T07:42:05.717Z,4.12
2019-02-11T07:43:05.845Z,4.12
2019-02-11T07:44:05.637Z,4.12
2019-02-11T07:45:05.682Z,4.12
2019-02-11T07:46:05.240Z,4.12
2019-02-11T07:47:06.268Z,4.19
2019-02-11T07:48:05.628Z,4.19
2019-02-11T07:49:05.783Z,4.12
2019-02-11T07:50:05.700Z,4.12
2019-02-11T07:51:05.321Z,4.12
2019-02-11T07:52:05.468Z,4.19
2019-02-11T07:53:05.226Z,4.19
2019-02-11T07:54:05.231Z,4.19
2019-02-11T07:55:06.014Z,4.19
2019-02-11T07:56:05.202Z,4.25
2019-02-11T07:57:05.475Z,4.25
2019-02-11T07:58:05.863Z,4.25
2019-02-11T07:59:05.641Z,4.25
2019-02-11T08:00:05.723Z,4.19
2019-02-11T08:01:05.711Z,4.19
2019-02-11T08:02:06.029Z,4.19
2019-02-11T08:03:05.788Z,4.25
2019-02-11T08:04:05.859Z,4.25
2019-02-11T08:05:05.773Z,4.25
2019-02-11T08:06:05.318Z,4.25
2019-02-11T08:07:06.108Z,4.25
2019-02-11T08:08:05.230Z,4.25
2019-02-11T08:09:05.689Z,4.25
2019-02-11T08:10:05.471Z,4.25
2019-02-11T08:11:05.120Z,4.25
2019-02-11T08:12:05.563Z,4.31
2019-02-11T08:13:05.471Z,4.31
2019-02-11T08:14:05.773Z,4.31
2019-02-11T08:15:05.554Z,4.31
2019-02-11T08:16:05.624Z,4.31
2019-02-11T08:17:06.015Z,4.31
2019-02-11T08:18:05.562Z,4.31
2019-02-11T08:19:05.926Z,4.31
2019-02-11T08:20:05.467Z,4.31
2019-02-11T08:21:05.625Z,4.31
2019-02-11T08:22:05.870Z,4.38
2019-02-11T08:23:11.216Z,4.38
2019-02-11T08:24:05.233Z,4.38
2019-02-11T08:25:05.538Z,4.38
2019-02-11T08:26:06.156Z,4.44
2019-02-11T08:27:05.847Z,4.44
2019-02-11T08:28:05.373Z,4.44
2019-02-11T08:29:06.061Z,4.44
2019-02-11T08:30:05.548Z,4.44
2019-02-11T08:31:05.832Z,4.44
2019-02-11T08:32:05.544Z,4.44
2019-02-11T08:33:06.081Z,4.44
2019-02-11T08:34:05.539Z,4.44
2019-02-11T08:35:05.998Z,4.44
2019-02-11T08:36:05.146Z,4.50
2019-02-11T08:37:05.617Z,4.50
2019-02-11T08:38:05.786Z,4.50
2019-02-11T08:39:05.304Z,4.50
2019-02-11T08:40:06.114Z,4.56
2019-02-11T08:41:05.299Z,4.56
2019-02-11T08:42:05.242Z,4.62
2019-02-11T08:43:05.460Z,4.62
2019-02-11T08:44:05.708Z,4.62
2019-02-11T08:45:05.642Z,4.69
2019-02-11T08:46:05.751Z,4.69
2019-02-11T08:47:05.861Z,4.69
2019-02-11T08:48:05.936Z,4.69
2019-02-11T08:49:05.461Z,4.75
2019-02-11T08:50:05.127Z,4.75
2019-02-11T08:51:05.515Z,4.75
2019-02-11T08:52:05.677Z,4.81
2019-02-11T08:53:05.947Z,4.81
2019-02-11T08:54:05.355Z,4.81
2019-02-11T08:55:05.060Z,4.88
2019-02-11T08:56:05.546Z,4.88
2019-02-11T08:57:05.871Z,4.88
2019-02-11T08:58:05.475Z,4.88
2019-02-11T08:59:05.561Z,4.94
2019-02-11T09:00:05.547Z,4.94
2019-02-11T09:01:05.699Z,4.94
2019-02-11T09:02:05.308Z,5.00
2019-02-11T09:03:05.620Z,5.00
2019-02-11T09:04:05.067Z,5.06
2019-02-11T09:05:05.397Z,5.06
2019-02-11T09:06:05.604Z,5.06
2019-02-11T09:07:05.328Z,5.06
2019-02-11T09:08:05.239Z,5.06
2019-02-11T09:09:05.541Z,5.06
2019-02-11T09:10:05.712Z,5.12
2019-02-11T09:11:05.869Z,5.12
2019-02-11T09:12:05.446Z,5.12
2019-02-11T09:13:05.577Z,5.19
2019-02-11T09:14:06.001Z,5.19
2019-02-11T09:15:05.557Z,5.19
2019-02-11T09:16:05.690Z,5.19
2019-02-11T09:17:10.173Z,5.25
2019-02-11T09:18:05.525Z,5.25
2019-02-11T09:19:05.385Z,5.25
2019-02-11T09:20:05.758Z,5.25
2019-02-11T09:21:05.787Z,5.25
2019-02-11T09:22:07.414Z,5.31
2019-02-11T09:23:05.199Z,5.31
2019-02-11T09:24:05.376Z,5.25
2019-02-11T09:25:05.462Z,5.25
2019-02-11T09:26:05.208Z,5.25
2019-02-11T09:27:05.217Z,5.25
2019-02-11T09:28:05.627Z,5.31
2019-02-11T09:29:05.824Z,5.31
2019-02-11T09:30:05.390Z,5.31
2019-02-11T09:31:05.391Z,5.31
2019-02-11T09:32:05.448Z,5.31
2019-02-11T09:33:05.145Z,5.25
2019-02-11T09:34:05.677Z,5.25
2019-02-11T09:35:05.773Z,5.25
2019-02-11T09:36:05.051Z,5.25
2019-02-11T09:37:05.791Z,5.25
2019-02-11T09:38:05.127Z,5.25
2019-02-11T09:39:05.780Z,5.25
2019-02-11T09:40:05.833Z,5.19
2019-02-11T09:41:06.143Z,5.19
2019-02-11T09:42:05.298Z,5.25
2019-02-11T09:43:05.710Z,5.25
2019-02-11T09:44:05.852Z,5.25
2019-02-11T09:45:05.565Z,5.25
2019-02-11T09:46:05.512Z,5.19
2019-02-11T09:47:05.717Z,5.19
2019-02-11T09:48:05.941Z,5.25
2019-02-11T09:49:06.110Z,5.25
2019-02-11T09:50:05.770Z,5.25
2019-02-11T09:51:05.948Z,5.25
2019-02-11T09:52:05.229Z,5.25
2019-02-11T09:53:05.308Z,5.25
2019-02-11T09:54:05.766Z,5.25
2019-02-11T09:55:05.293Z,5.25
2019-02-11T09:56:05.371Z,5.25
2019-02-11T09:57:05.885Z,5.25
2019-02-11T09:58:05.861Z,5.25
2019-02-11T09:59:05.300Z,5.31
2019-02-11T10:00:05.277Z,5.31
2019-02-11T10:01:06.021Z,5.31
2019-02-11T10:02:05.136Z,5.38
2019-02-11T10:03:05.788Z,5.38
2019-02-11T10:04:05.923Z,5.44
2019-02-11T10:05:05.703Z,5.44
2019-02-11T10:06:05.405Z,5.44
2019-02-11T10:07:05.783Z,5.50
2019-02-11T10:08:05.293Z,5.50
2019-02-11T10:09:05.798Z,5.56
2019-02-11T10:10:05.945Z,5.56
2019-02-11T10:11:05.240Z,5.62
2019-02-11T10:12:05.210Z,5.62
2019-02-11T10:13:05.314Z,5.69
2019-02-11T10:14:05.387Z,5.69
2019-02-11T10:15:05.628Z,5.69
2019-02-11T10:16:12.235Z,5.69
2019-02-11T10:17:05.168Z,5.69
2019-02-11T10:18:05.198Z,5.75
2019-02-11T10:19:05.444Z,5.75
2019-02-11T10:20:05.527Z,5.69
2019-02-11T10:21:05.459Z,5.69
2019-02-11T10:22:05.835Z,5.69
2019-02-11T10:23:05.550Z,5.69
2019-02-11T10:24:05.852Z,5.69
2019-02-11T10:25:05.451Z,5.75
2019-02-11T10:26:05.787Z,5.69
2019-02-11T10:27:05.956Z,5.69
2019-02-11T10:28:05.548Z,5.69
2019-02-11T10:29:05.809Z,5.69
2019-02-11T10:30:05.866Z,5.69
2019-02-11T10:31:06.014Z,5.69
2019-02-11T10:32:05.383Z,5.69
2019-02-11T10:33:05.591Z,5.69
2019-02-11T10:34:05.932Z,5.69
2019-02-11T10:35:05.138Z,5.62
2019-02-11T10:36:05.759Z,5.62
2019-02-11T10:37:05.397Z,5.62
2019-02-11T10:38:05.445Z,5.62
2019-02-11T10:39:05.707Z,5.56
2019-02-11T10:40:06.041Z,5.62
2019-02-11T10:41:06.028Z,5.62
2019-02-11T10:42:05.155Z,5.56
2019-02-11T10:43:05.716Z,5.56
2019-02-11T10:44:05.855Z,5.56
2019-02-11T10:45:05.949Z,5.56
2019-02-11T10:46:05.445Z,5.56
2019-02-11T10:47:05.498Z,5.56
2019-02-11T10:48:05.775Z,5.56
2019-02-11T10:49:05.866Z,5.56
2019-02-11T10:50:06.007Z,5.56
2019-02-11T10:51:05.340Z,5.56
2019-02-11T10:52:05.443Z,5.56
2019-02-11T10:53:05.171Z,5.56
2019-02-11T10:54:05.437Z,5.56
2019-02-11T10:55:05.954Z,5.50
2019-02-11T10:56:06.084Z,5.50
2019-02-11T10:57:05.549Z,5.50
2019-02-11T10:58:05.039Z,5.50
2019-02-11T10:59:05.223Z,5.50
2019-02-11T11:00:05.314Z,5.50
2019-02-11T11:01:05.901Z,5.50
2019-02-11T11:02:06.017Z,5.50
2019-02-11T11:03:05.058Z,5.50
2019-02-11T11:04:05.783Z,5.50
2019-02-11T11:05:05.762Z,5.50
2019-02-11T11:06:05.997Z,5.50
2019-02-11T11:07:05.604Z,5.50
2019-02-11T11:08:05.786Z,5.50
2019-02-11T11:09:06.746Z,5.50
2019-02-11T11:10:05.147Z,5.50
2019-02-11T11:11:05.325Z,5.50
2019-02-11T11:12:05.305Z,5.56
2019-02-11T11:13:05.716Z,5.50
2019-02-11T11:14:05.228Z,5.50
2019-02-11T11:15:05.569Z,5.50
2019-02-11T11:16:05.946Z,5.50
2019-02-11T11:17:05.291Z,5.50
2019-02-11T11:18:05.683Z,5.50
2019-02-11T11:19:05.147Z,5.50
2019-02-11T11:20:05.304Z,5.56
2019-02-11T11:21:05.560Z,5.56
2019-02-11T11:22:06.017Z,5.56
2019-02-11T11:23:05.330Z,5.50
2019-02-11T11:24:06.342Z,5.56
2019-02-11T11:25:05.775Z,5.50
2019-02-11T11:26:05.124Z,5.50
2019-02-11T11:27:05.625Z,5.50
2019-02-11T11:28:05.775Z,5.50
2019-02-11T11:29:06.130Z,5.50
2019-02-11T11:30:05.463Z,5.56
2019-02-11T11:31:05.711Z,5.56
2019-02-11T11:32:05.401Z,5.56
2019-02-11T11:33:05.470Z,5.56
2019-02-11T11:34:05.441Z,5.56
2019-02-11T11:35:05.602Z,5.56
2019-02-11T11:36:05.761Z,5.56
2019-02-11T11:37:05.805Z,5.62
2019-02-11T11:38:05.051Z,5.62
2019-02-11T11:39:05.713Z,5.62
2019-02-11T11:40:05.767Z,5.62
2019-02-11T11:41:05.321Z,5.62
2019-02-11T11:42:05.614Z,5.62
2019-02-11T11:43:05.065Z,5.62
2019-02-11T11:44:05.279Z,5.62
2019-02-11T11:45:05.852Z,5.62
2019-02-11T11:46:05.308Z,5.62
2019-02-11T11:47:05.309Z,5.62
2019-02-11T11:48:05.683Z,5.62
2019-02-11T11:49:05.954Z,5.62
2019-02-11T11:50:06.034Z,5.62
2019-02-11T11:51:05.062Z,5.62
2019-02-11T11:52:05.837Z,5.62
2019-02-11T11:53:07.411Z,5.62
2019-02-11T11:54:06.097Z,5.62
2019-02-11T11:55:05.067Z,5.62
2019-02-11T11:56:05.168Z,5.62
2019-02-11T11:57:05.630Z,5.62
2019-02-11T11:58:05.134Z,5.62
2019-02-11T11:59:06.140Z,5.62
2019-02-11T12:00:05.072Z,5.62
2019-02-11T12:01:05.729Z,5.62
2019-02-11T12:02:05.838Z,5.62
2019-02-11T12:03:05.903Z,5.62
2019-02-11T12:04:06.499Z,5.62
2019-02-11T12:05:05.416Z,5.62
2019-02-11T12:06:05.648Z,5.69
2019-02-11T12:07:05.863Z,5.69
2019-02-11T12:08:05.554Z,5.69
2019-02-11T12:09:05.696Z,5.69
2019-02-11T12:10:06.019Z,5.69
2019-02-11T12:11:06.693Z,5.69
2019-02-11T12:12:06.007Z,5.69
2019-02-11T12:13:21.179Z,5.75
2019-02-11T12:14:05.842Z,5.75
2019-02-11T12:15:06.046Z,5.69
2019-02-11T12:16:05.636Z,5.69
2019-02-11T12:17:05.716Z,5.69
2019-02-11T12:18:05.555Z,5.75
2019-02-11T12:19:05.620Z,5.75
2019-02-11T12:20:05.057Z,5.75
2019-02-11T12:21:05.796Z,5.75
2019-02-11T12:22:05.954Z,5.75
2019-02-11T12:23:05.636Z,5.75
2019-02-11T12:24:05.068Z,5.75
2019-02-11T12:25:05.234Z,5.75
2019-02-11T12:26:05.475Z,5.75
2019-02-11T12:27:05.728Z,5.75
2019-02-11T12:28:05.969Z,5.75
2019-02-11T12:29:05.144Z,5.75
2019-02-11T12:30:05.543Z,5.75
2019-02-11T12:31:06.037Z,5.75
2019-02-11T12:32:05.553Z,5.81
2019-02-11T12:33:05.975Z,5.81
2019-02-11T12:34:05.404Z,5.81
2019-02-11T12:35:05.476Z,5.81
2019-02-11T12:36:05.054Z,5.81
2019-02-11T12:37:08.984Z,5.81
2019-02-11T12:38:05.303Z,5.81
2019-02-11T12:39:05.918Z,5.81
2019-02-11T12:40:05.129Z,5.81
2019-02-11T12:41:05.755Z,5.81
2019-02-11T12:42:05.954Z,5.81
2019-02-11T12:43:05.621Z,5.81
2019-02-11T12:44:05.154Z,5.81
2019-02-11T12:45:05.634Z,5.81
2019-02-11T12:46:05.860Z,5.81
2019-02-11T12:47:13.637Z,5.81
2019-02-11T12:48:05.635Z,5.81
2019-02-11T12:49:05.150Z,5.81
2019-02-11T12:50:05.639Z,5.81
2019-02-11T12:51:05.880Z,5.81
2019-02-11T12:52:05.475Z,5.81
2019-02-11T12:53:05.573Z,5.81
2019-02-11T12:54:05.124Z,5.81
2019-02-11T12:55:07.869Z,5.81
2019-02-11T12:56:06.038Z,5.81
2019-02-11T12:57:05.172Z,5.81
2019-02-11T12:58:05.826Z,5.81
2019-02-11T12:59:05.870Z,5.81
2019-02-11T13:00:05.486Z,5.81
2019-02-11T13:01:05.822Z,5.81
2019-02-11T13:02:06.033Z,5.75
2019-02-11T13:03:06.057Z,5.75
2019-02-11T13:04:05.621Z,5.75
2019-02-11T13:05:05.814Z,5.75
2019-02-11T13:06:05.384Z,5.75
2019-02-11T13:07:05.952Z,5.75
2019-02-11T13:08:05.253Z,5.75
2019-02-11T13:09:05.491Z,5.75
2019-02-11T13:10:05.942Z,5.75
2019-02-11T13:11:05.474Z,5.69
2019-02-11T13:12:05.953Z,5.69
2019-02-11T13:13:06.924Z,5.69
2019-02-11T13:14:05.966Z,5.69
2019-02-11T13:15:05.254Z,5.69
2019-02-11T13:16:05.463Z,5.69
2019-02-11T13:17:14.623Z,5.69
2019-02-11T13:18:06.166Z,5.69